sensor_id;sensor_type;location;lat;lon;timestamp;P1;durP1;ratioP1;P2;durP2;ratioP2
18263;SDS011;9258;48.668;9.172;2022-07-06T00:02:30;4.35;;;1.73;;
18263;SDS011;9258;48.668;9.172;2022-07-06T00:05:32;4.00;;;1.50;;
18263;SDS011;9258;48.668;9.172;2022-07-06T00:08:33;1.80;;;1.40;;
18263;SDS011;9258;48.668;9.172;2022-07-06T00:11:35;2.30;;;1.40;;
18263;SDS011;9258;48.668;9.172;2022-07-06T00:14:36;3.92;;;1.40;;
18263;SDS011;9258;48.668;9.172;2022-07-06T00:17:39;3.15;;;1.50;;
18263;SDS011;9258;48.668;9.172;2022-07-06T00:20:41;2.40;;;1.48;;
18263;SDS011;9258;48.668;9.172;2022-07-06T00:23:42;2.30;;;1.20;;
18263;SDS011;9258;48.668;9.172;2022-07-06T00:26:44;1.50;;;1.40;;
18263;SDS011;9258;48.668;9.172;2022-07-06T00:29:46;3.92;;;1.70;;
18263;SDS011;9258;48.668;9.172;2022-07-06T00:32:49;2.38;;;1.20;;
18263;SDS011;9258;48.668;9.172;2022-07-06T00:35:50;2.90;;;1.40;;
18263;SDS011;9258;48.668;9.172;2022-07-06T00:38:52;1.90;;;1.35;;
18263;SDS011;9258;48.668;9.172;2022-07-06T00:41:53;3.03;;;1.60;;
18263;SDS011;9258;48.668;9.172;2022-07-06T00:44:55;1.90;;;1.42;;
18263;SDS011;9258;48.668;9.172;2022-07-06T00:47:57;1.55;;;1.40;;
18263;SDS011;9258;48.668;9.172;2022-07-06T00:50:59;1.85;;;1.40;;
18263;SDS011;9258;48.668;9.172;2022-07-06T00:54:02;3.25;;;1.55;;
18263;SDS011;9258;48.668;9.172;2022-07-06T00:57:05;2.60;;;1.60;;
18263;SDS011;9258;48.668;9.172;2022-07-06T01:00:08;2.30;;;1.45;;
18263;SDS011;9258;48.668;9.172;2022-07-06T01:03:12;3.15;;;1.65;;
18263;SDS011;9258;48.668;9.172;2022-07-06T01:06:13;1.80;;;1.50;;
18263;SDS011;9258;48.668;9.172;2022-07-06T01:09:15;2.00;;;1.60;;
18263;SDS011;9258;48.668;9.172;2022-07-06T01:12:17;2.53;;;1.60;;
18263;SDS011;9258;48.668;9.172;2022-07-06T01:15:20;4.10;;;1.70;;
18263;SDS011;9258;48.668;9.172;2022-07-06T01:18:24;2.13;;;1.92;;
18263;SDS011;9258;48.668;9.172;2022-07-06T01:21:27;2.20;;;1.60;;
18263;SDS011;9258;48.668;9.172;2022-07-06T01:24:29;2.65;;;1.70;;
18263;SDS011;9258;48.668;9.172;2022-07-06T01:27:30;4.32;;;1.58;;
18263;SDS011;9258;48.668;9.172;2022-07-06T01:30:34;2.47;;;1.55;;
18263;SDS011;9258;48.668;9.172;2022-07-06T01:33:36;3.30;;;1.67;;
18263;SDS011;9258;48.668;9.172;2022-07-06T01:36:38;2.70;;;1.50;;
18263;SDS011;9258;48.668;9.172;2022-07-06T01:39:40;1.40;;;1.25;;
18263;SDS011;9258;48.668;9.172;2022-07-06T01:42:41;2.05;;;1.60;;
18263;SDS011;9258;48.668;9.172;2022-07-06T01:45:43;2.97;;;1.27;;
18263;SDS011;9258;48.668;9.172;2022-07-06T01:48:44;1.88;;;1.30;;
18263;SDS011;9258;48.668;9.172;2022-07-06T01:51:47;2.38;;;1.60;;
18263;SDS011;9258;48.668;9.172;2022-07-06T01:54:49;1.58;;;1.30;;
18263;SDS011;9258;48.668;9.172;2022-07-06T01:57:50;1.48;;;1.38;;
18263;SDS011;9258;48.668;9.172;2022-07-06T02:00:52;1.92;;;1.30;;
18263;SDS011;9258;48.668;9.172;2022-07-06T02:03:53;3.45;;;1.50;;
18263;SDS011;9258;48.668;9.172;2022-07-06T02:06:56;2.28;;;1.70;;
18263;SDS011;9258;48.668;9.172;2022-07-06T02:09:57;3.58;;;1.70;;
18263;SDS011;9258;48.668;9.172;2022-07-06T02:12:59;2.22;;;1.75;;
18263;SDS011;9258;48.668;9.172;2022-07-06T02:16:00;2.20;;;1.50;;
18263;SDS011;9258;48.668;9.172;2022-07-06T02:19:03;3.25;;;1.80;;
18263;SDS011;9258;48.668;9.172;2022-07-06T02:22:06;1.85;;;1.63;;
18263;SDS011;9258;48.668;9.172;2022-07-06T02:25:08;2.70;;;1.65;;
18263;SDS011;9258;48.668;9.172;2022-07-06T02:28:09;1.85;;;1.45;;
18263;SDS011;9258;48.668;9.172;2022-07-06T02:31:11;7.35;;;1.90;;
18263;SDS011;9258;48.668;9.172;2022-07-06T02:34:13;2.50;;;1.48;;
18263;SDS011;9258;48.668;9.172;2022-07-06T02:37:16;2.38;;;1.52;;
18263;SDS011;9258;48.668;9.172;2022-07-06T02:40:17;3.33;;;1.40;;
18263;SDS011;9258;48.668;9.172;2022-07-06T02:43:19;5.70;;;1.63;;
18263;SDS011;9258;48.668;9.172;2022-07-06T02:46:20;4.15;;;1.70;;
18263;SDS011;9258;48.668;9.172;2022-07-06T02:49:21;5.28;;;1.60;;
18263;SDS011;9258;48.668;9.172;2022-07-06T02:52:24;3.30;;;1.50;;
18263;SDS011;9258;48.668;9.172;2022-07-06T02:55:26;2.50;;;1.55;;
18263;SDS011;9258;48.668;9.172;2022-07-06T02:58:27;3.08;;;1.50;;
18263;SDS011;9258;48.668;9.172;2022-07-06T03:01:29;3.42;;;1.60;;
18263;SDS011;9258;48.668;9.172;2022-07-06T03:04:30;4.45;;;1.77;;
18263;SDS011;9258;48.668;9.172;2022-07-06T03:07:33;2.88;;;1.58;;
18263;SDS011;9258;48.668;9.172;2022-07-06T03:10:35;4.95;;;1.83;;
18263;SDS011;9258;48.668;9.172;2022-07-06T03:13:36;1.42;;;1.30;;
18263;SDS011;9258;48.668;9.172;2022-07-06T03:16:38;2.72;;;1.55;;
18263;SDS011;9258;48.668;9.172;2022-07-06T03:19:39;3.33;;;1.70;;
18263;SDS011;9258;48.668;9.172;2022-07-06T03:22:42;1.85;;;1.38;;
18263;SDS011;9258;48.668;9.172;2022-07-06T03:25:44;1.73;;;1.48;;
18263;SDS011;9258;48.668;9.172;2022-07-06T03:28:45;2.97;;;1.67;;
18263;SDS011;9258;48.668;9.172;2022-07-06T03:31:47;2.67;;;1.60;;
18263;SDS011;9258;48.668;9.172;2022-07-06T03:34:48;3.38;;;1.80;;
18263;SDS011;9258;48.668;9.172;2022-07-06T03:37:51;2.03;;;1.55;;
18263;SDS011;9258;48.668;9.172;2022-07-06T03:40:52;2.20;;;2.00;;
18263;SDS011;9258;48.668;9.172;2022-07-06T03:43:54;2.78;;;1.35;;
18263;SDS011;9258;48.668;9.172;2022-07-06T03:46:55;2.90;;;1.60;;
18263;SDS011;9258;48.668;9.172;2022-07-06T03:49:57;3.45;;;1.60;;
18263;SDS011;9258;48.668;9.172;2022-07-06T03:53:00;3.00;;;1.80;;
18263;SDS011;9258;48.668;9.172;2022-07-06T03:56:01;4.00;;;1.77;;
18263;SDS011;9258;48.668;9.172;2022-07-06T03:59:21;2.58;;;1.85;;
18263;SDS011;9258;48.668;9.172;2022-07-06T04:02:22;2.55;;;1.90;;
18263;SDS011;9258;48.668;9.172;2022-07-06T04:05:24;6.00;;;1.85;;
18263;SDS011;9258;48.668;9.172;2022-07-06T04:08:27;2.30;;;1.88;;
18263;SDS011;9258;48.668;9.172;2022-07-06T04:11:28;2.97;;;2.00;;
18263;SDS011;9258;48.668;9.172;2022-07-06T04:14:29;4.90;;;1.75;;
18263;SDS011;9258;48.668;9.172;2022-07-06T04:17:31;3.33;;;1.90;;
18263;SDS011;9258;48.668;9.172;2022-07-06T04:20:50;4.18;;;2.10;;
18263;SDS011;9258;48.668;9.172;2022-07-06T04:23:53;3.55;;;2.13;;
18263;SDS011;9258;48.668;9.172;2022-07-06T04:26:54;2.97;;;1.60;;
18263;SDS011;9258;48.668;9.172;2022-07-06T04:29:56;2.50;;;2.10;;
18263;SDS011;9258;48.668;9.172;2022-07-06T04:32:57;3.78;;;2.05;;
18263;SDS011;9258;48.668;9.172;2022-07-06T04:35:59;2.45;;;2.00;;
18263;SDS011;9258;48.668;9.172;2022-07-06T04:39:02;3.38;;;2.00;;
18263;SDS011;9258;48.668;9.172;2022-07-06T04:42:03;2.53;;;1.80;;
18263;SDS011;9258;48.668;9.172;2022-07-06T04:45:05;2.00;;;1.80;;
18263;SDS011;9258;48.668;9.172;2022-07-06T04:48:07;3.15;;;1.88;;
18263;SDS011;9258;48.668;9.172;2022-07-06T04:51:09;5.18;;;2.00;;
18263;SDS011;9258;48.668;9.172;2022-07-06T04:54:12;2.83;;;1.83;;
18263;SDS011;9258;48.668;9.172;2022-07-06T04:57:13;3.97;;;2.85;;
18263;SDS011;9258;48.668;9.172;2022-07-06T05:00:15;3.25;;;2.13;;
18263;SDS011;9258;48.668;9.172;2022-07-06T05:03:17;3.55;;;2.10;;
18263;SDS011;9258;48.668;9.172;2022-07-06T05:06:18;3.03;;;2.03;;
18263;SDS011;9258;48.668;9.172;2022-07-06T05:09:21;3.45;;;2.20;;
18263;SDS011;9258;48.668;9.172;2022-07-06T05:12:23;5.15;;;1.88;;
18263;SDS011;9258;48.668;9.172;2022-07-06T05:15:25;4.13;;;1.90;;
18263;SDS011;9258;48.668;9.172;2022-07-06T05:18:26;2.72;;;2.30;;
18263;SDS011;9258;48.668;9.172;2022-07-06T05:21:28;2.45;;;2.22;;
18263;SDS011;9258;48.668;9.172;2022-07-06T05:24:30;3.65;;;2.25;;
18263;SDS011;9258;48.668;9.172;2022-07-06T05:27:32;3.17;;;1.92;;
18263;SDS011;9258;48.668;9.172;2022-07-06T05:30:33;3.70;;;1.92;;
18263;SDS011;9258;48.668;9.172;2022-07-06T05:33:35;3.03;;;2.13;;
18263;SDS011;9258;48.668;9.172;2022-07-06T05:36:36;3.55;;;2.05;;
18263;SDS011;9258;48.668;9.172;2022-07-06T05:39:39;3.13;;;2.20;;
18263;SDS011;9258;48.668;9.172;2022-07-06T05:42:43;4.57;;;2.35;;
18263;SDS011;9258;48.668;9.172;2022-07-06T05:45:45;6.28;;;2.50;;
18263;SDS011;9258;48.668;9.172;2022-07-06T05:48:46;3.10;;;2.30;;
18263;SDS011;9258;48.668;9.172;2022-07-06T05:52:06;4.03;;;2.55;;
18263;SDS011;9258;48.668;9.172;2022-07-06T05:55:09;4.95;;;2.30;;
18263;SDS011;9258;48.668;9.172;2022-07-06T05:58:11;7.90;;;2.75;;
18263;SDS011;9258;48.668;9.172;2022-07-06T06:01:12;2.25;;;2.05;;
18263;SDS011;9258;48.668;9.172;2022-07-06T06:04:14;2.97;;;2.13;;
18263;SDS011;9258;48.668;9.172;2022-07-06T06:07:15;2.75;;;2.40;;
18263;SDS011;9258;48.668;9.172;2022-07-06T06:10:18;4.65;;;2.45;;
18263;SDS011;9258;48.668;9.172;2022-07-06T06:13:21;3.10;;;2.47;;
18263;SDS011;9258;48.668;9.172;2022-07-06T06:16:23;3.33;;;2.42;;
18263;SDS011;9258;48.668;9.172;2022-07-06T06:19:24;6.47;;;2.53;;
18263;SDS011;9258;48.668;9.172;2022-07-06T06:22:26;4.00;;;2.03;;
18263;SDS011;9258;48.668;9.172;2022-07-06T06:25:29;4.13;;;2.20;;
18263;SDS011;9258;48.668;9.172;2022-07-06T06:28:32;3.05;;;1.95;;
18263;SDS011;9258;48.668;9.172;2022-07-06T06:31:33;3.33;;;2.10;;
18263;SDS011;9258;48.668;9.172;2022-07-06T06:34:35;4.75;;;1.80;;
18263;SDS011;9258;48.668;9.172;2022-07-06T06:37:36;2.33;;;1.88;;
18263;SDS011;9258;48.668;9.172;2022-07-06T06:40:39;4.05;;;2.03;;
18263;SDS011;9258;48.668;9.172;2022-07-06T06:43:42;4.07;;;2.50;;
18263;SDS011;9258;48.668;9.172;2022-07-06T06:46:43;6.22;;;1.90;;
18263;SDS011;9258;48.668;9.172;2022-07-06T06:49:45;3.08;;;2.10;;
18263;SDS011;9258;48.668;9.172;2022-07-06T06:52:46;3.95;;;2.00;;
18263;SDS011;9258;48.668;9.172;2022-07-06T06:55:49;3.20;;;1.90;;
18263;SDS011;9258;48.668;9.172;2022-07-06T06:58:51;2.53;;;1.70;;
18263;SDS011;9258;48.668;9.172;2022-07-06T07:01:52;2.40;;;1.50;;
18263;SDS011;9258;48.668;9.172;2022-07-06T07:04:54;3.97;;;1.67;;
18263;SDS011;9258;48.668;9.172;2022-07-06T07:07:55;1.88;;;1.30;;
18263;SDS011;9258;48.668;9.172;2022-07-06T07:11:00;3.58;;;1.85;;
18263;SDS011;9258;48.668;9.172;2022-07-06T07:14:01;5.35;;;2.03;;
18263;SDS011;9258;48.668;9.172;2022-07-06T07:17:03;3.10;;;1.92;;
18263;SDS011;9258;48.668;9.172;2022-07-06T07:20:05;3.15;;;1.60;;
18263;SDS011;9258;48.668;9.172;2022-07-06T07:23:07;1.88;;;1.50;;
18263;SDS011;9258;48.668;9.172;2022-07-06T07:26:10;3.45;;;1.80;;
18263;SDS011;9258;48.668;9.172;2022-07-06T07:29:12;2.05;;;1.73;;
18263;SDS011;9258;48.668;9.172;2022-07-06T07:32:13;3.20;;;1.75;;
18263;SDS011;9258;48.668;9.172;2022-07-06T07:35:15;4.85;;;1.80;;
18263;SDS011;9258;48.668;9.172;2022-07-06T07:38:16;2.65;;;2.10;;
18263;SDS011;9258;48.668;9.172;2022-07-06T07:41:19;1.95;;;1.73;;
18263;SDS011;9258;48.668;9.172;2022-07-06T07:44:20;4.18;;;1.85;;
18263;SDS011;9258;48.668;9.172;2022-07-06T07:47:22;3.65;;;2.03;;
18263;SDS011;9258;48.668;9.172;2022-07-06T07:50:23;2.20;;;1.70;;
18263;SDS011;9258;48.668;9.172;2022-07-06T07:53:26;3.50;;;1.75;;
18263;SDS011;9258;48.668;9.172;2022-07-06T07:56:29;2.83;;;1.70;;
18263;SDS011;9258;48.668;9.172;2022-07-06T07:59:31;3.80;;;1.70;;
18263;SDS011;9258;48.668;9.172;2022-07-06T08:02:32;3.63;;;2.00;;
18263;SDS011;9258;48.668;9.172;2022-07-06T08:05:34;6.25;;;2.35;;
18263;SDS011;9258;48.668;9.172;2022-07-06T08:08:35;4.80;;;2.30;;
18263;SDS011;9258;48.668;9.172;2022-07-06T08:11:39;2.25;;;1.85;;
18263;SDS011;9258;48.668;9.172;2022-07-06T08:14:40;2.45;;;1.95;;
18263;SDS011;9258;48.668;9.172;2022-07-06T08:17:42;2.15;;;1.95;;
18263;SDS011;9258;48.668;9.172;2022-07-06T08:20:43;5.13;;;1.98;;
18263;SDS011;9258;48.668;9.172;2022-07-06T08:23:45;3.13;;;2.10;;
18263;SDS011;9258;48.668;9.172;2022-07-06T08:26:48;3.45;;;2.20;;
18263;SDS011;9258;48.668;9.172;2022-07-06T08:29:49;5.03;;;2.55;;
18263;SDS011;9258;48.668;9.172;2022-07-06T08:32:51;5.10;;;2.17;;
18263;SDS011;9258;48.668;9.172;2022-07-06T08:35:52;5.13;;;2.20;;
18263;SDS011;9258;48.668;9.172;2022-07-06T08:38:54;2.22;;;1.77;;
18263;SDS011;9258;48.668;9.172;2022-07-06T08:41:57;2.83;;;1.90;;
18263;SDS011;9258;48.668;9.172;2022-07-06T08:45:00;4.53;;;2.30;;
18263;SDS011;9258;48.668;9.172;2022-07-06T08:48:05;6.15;;;1.80;;
18263;SDS011;9258;48.668;9.172;2022-07-06T08:51:08;2.20;;;2.00;;
18263;SDS011;9258;48.668;9.172;2022-07-06T08:54:09;3.17;;;2.17;;
18263;SDS011;9258;48.668;9.172;2022-07-06T08:57:14;3.40;;;2.25;;
18263;SDS011;9258;48.668;9.172;2022-07-06T09:00:15;3.70;;;1.83;;
18263;SDS011;9258;48.668;9.172;2022-07-06T09:03:17;4.03;;;2.40;;
18263;SDS011;9258;48.668;9.172;2022-07-06T09:06:19;3.60;;;1.95;;
18263;SDS011;9258;48.668;9.172;2022-07-06T09:09:25;3.22;;;1.88;;
18263;SDS011;9258;48.668;9.172;2022-07-06T09:12:32;3.15;;;1.80;;
18263;SDS011;9258;48.668;9.172;2022-07-06T09:15:34;2.88;;;1.92;;
18263;SDS011;9258;48.668;9.172;2022-07-06T09:18:38;4.63;;;2.05;;
18263;SDS011;9258;48.668;9.172;2022-07-06T09:21:42;3.95;;;2.15;;
18263;SDS011;9258;48.668;9.172;2022-07-06T09:24:44;2.22;;;2.10;;
18263;SDS011;9258;48.668;9.172;2022-07-06T09:27:47;4.55;;;1.83;;
18263;SDS011;9258;48.668;9.172;2022-07-06T09:30:50;3.08;;;1.88;;
18263;SDS011;9258;48.668;9.172;2022-07-06T09:33:56;4.22;;;2.15;;
18263;SDS011;9258;48.668;9.172;2022-07-06T09:37:00;4.35;;;2.35;;
18263;SDS011;9258;48.668;9.172;2022-07-06T09:40:15;3.55;;;2.30;;
18263;SDS011;9258;48.668;9.172;2022-07-06T09:43:20;4.32;;;2.28;;
18263;SDS011;9258;48.668;9.172;2022-07-06T09:46:22;4.68;;;2.33;;
18263;SDS011;9258;48.668;9.172;2022-07-06T09:49:24;2.88;;;1.90;;
18263;SDS011;9258;48.668;9.172;2022-07-06T09:52:26;2.78;;;1.63;;
18263;SDS011;9258;48.668;9.172;2022-07-06T09:55:29;4.20;;;2.00;;
18263;SDS011;9258;48.668;9.172;2022-07-06T09:58:32;2.80;;;2.20;;
18263;SDS011;9258;48.668;9.172;2022-07-06T10:01:39;5.85;;;2.55;;
18263;SDS011;9258;48.668;9.172;2022-07-06T10:04:42;3.38;;;1.63;;
18263;SDS011;9258;48.668;9.172;2022-07-06T10:07:49;5.18;;;2.00;;
18263;SDS011;9258;48.668;9.172;2022-07-06T10:10:51;2.63;;;1.80;;
18263;SDS011;9258;48.668;9.172;2022-07-06T10:13:54;2.35;;;2.03;;
18263;SDS011;9258;48.668;9.172;2022-07-06T10:16:58;3.28;;;2.20;;
18263;SDS011;9258;48.668;9.172;2022-07-06T10:20:01;3.60;;;1.80;;
18263;SDS011;9258;48.668;9.172;2022-07-06T10:23:06;3.28;;;2.17;;
18263;SDS011;9258;48.668;9.172;2022-07-06T10:26:09;3.45;;;2.22;;
18263;SDS011;9258;48.668;9.172;2022-07-06T10:29:12;5.30;;;2.60;;
18263;SDS011;9258;48.668;9.172;2022-07-06T10:32:16;10.55;;;2.13;;
18263;SDS011;9258;48.668;9.172;2022-07-06T10:35:20;4.25;;;2.05;;
18263;SDS011;9258;48.668;9.172;2022-07-06T10:38:22;1.73;;;1.63;;
18263;SDS011;9258;48.668;9.172;2022-07-06T10:41:33;3.58;;;1.70;;
18263;SDS011;9258;48.668;9.172;2022-07-06T10:44:37;4.78;;;2.03;;
18263;SDS011;9258;48.668;9.172;2022-07-06T10:47:46;4.43;;;2.10;;
18263;SDS011;9258;48.668;9.172;2022-07-06T10:50:48;2.85;;;1.90;;
18263;SDS011;9258;48.668;9.172;2022-07-06T10:53:55;3.38;;;2.00;;
18263;SDS011;9258;48.668;9.172;2022-07-06T10:56:58;3.17;;;1.70;;
18263;SDS011;9258;48.668;9.172;2022-07-06T11:00:12;6.25;;;2.30;;
18263;SDS011;9258;48.668;9.172;2022-07-06T11:03:30;3.38;;;2.00;;
18263;SDS011;9258;48.668;9.172;2022-07-06T11:06:36;2.65;;;1.85;;
18263;SDS011;9258;48.668;9.172;2022-07-06T11:09:39;3.75;;;2.20;;
18263;SDS011;9258;48.668;9.172;2022-07-06T11:12:47;4.38;;;2.10;;
18263;SDS011;9258;48.668;9.172;2022-07-06T11:16:04;4.63;;;1.90;;
18263;SDS011;9258;48.668;9.172;2022-07-06T11:19:06;7.13;;;2.55;;
18263;SDS011;9258;48.668;9.172;2022-07-06T11:22:10;5.22;;;1.90;;
18263;SDS011;9258;48.668;9.172;2022-07-06T11:25:11;4.97;;;2.42;;
18263;SDS011;9258;48.668;9.172;2022-07-06T11:28:13;2.75;;;1.70;;
18263;SDS011;9258;48.668;9.172;2022-07-06T11:31:17;3.15;;;1.98;;
18263;SDS011;9258;48.668;9.172;2022-07-06T11:34:20;3.80;;;2.35;;
18263;SDS011;9258;48.668;9.172;2022-07-06T11:37:22;4.65;;;1.85;;
18263;SDS011;9258;48.668;9.172;2022-07-06T11:40:25;4.05;;;2.55;;
18263;SDS011;9258;48.668;9.172;2022-07-06T11:43:27;10.73;;;2.60;;
18263;SDS011;9258;48.668;9.172;2022-07-06T11:46:30;2.88;;;2.10;;
18263;SDS011;9258;48.668;9.172;2022-07-06T11:49:34;4.75;;;2.10;;
18263;SDS011;9258;48.668;9.172;2022-07-06T11:52:38;3.25;;;2.40;;
18263;SDS011;9258;48.668;9.172;2022-07-06T11:55:39;4.57;;;2.40;;
18263;SDS011;9258;48.668;9.172;2022-07-06T11:58:41;6.65;;;2.42;;
18263;SDS011;9258;48.668;9.172;2022-07-06T12:01:48;3.78;;;2.33;;
18263;SDS011;9258;48.668;9.172;2022-07-06T12:04:50;5.32;;;2.75;;
18263;SDS011;9258;48.668;9.172;2022-07-06T12:08:02;3.10;;;2.33;;
18263;SDS011;9258;48.668;9.172;2022-07-06T12:11:05;2.80;;;2.20;;
18263;SDS011;9258;48.668;9.172;2022-07-06T12:14:12;6.63;;;2.50;;
18263;SDS011;9258;48.668;9.172;2022-07-06T12:17:16;5.20;;;2.17;;
18263;SDS011;9258;48.668;9.172;2022-07-06T12:20:18;4.68;;;2.30;;
18263;SDS011;9258;48.668;9.172;2022-07-06T12:23:19;3.88;;;2.00;;
18263;SDS011;9258;48.668;9.172;2022-07-06T12:26:22;7.00;;;2.75;;
18263;SDS011;9258;48.668;9.172;2022-07-06T12:29:28;6.97;;;3.38;;
18263;SDS011;9258;48.668;9.172;2022-07-06T12:32:31;4.57;;;3.10;;
18263;SDS011;9258;48.668;9.172;2022-07-06T12:35:36;7.13;;;3.72;;
18263;SDS011;9258;48.668;9.172;2022-07-06T12:38:43;5.20;;;2.78;;
18263;SDS011;9258;48.668;9.172;2022-07-06T12:41:48;3.38;;;2.78;;
18263;SDS011;9258;48.668;9.172;2022-07-06T12:44:51;5.22;;;2.70;;
18263;SDS011;9258;48.668;9.172;2022-07-06T12:47:58;5.18;;;2.67;;
18263;SDS011;9258;48.668;9.172;2022-07-06T12:51:01;3.45;;;2.55;;
18263;SDS011;9258;48.668;9.172;2022-07-06T12:54:13;3.78;;;2.83;;
18263;SDS011;9258;48.668;9.172;2022-07-06T12:57:15;7.97;;;2.90;;
18263;SDS011;9258;48.668;9.172;2022-07-06T13:00:18;4.53;;;3.03;;
18263;SDS011;9258;48.668;9.172;2022-07-06T13:03:21;4.60;;;2.42;;
18263;SDS011;9258;48.668;9.172;2022-07-06T13:06:30;4.50;;;2.53;;
18263;SDS011;9258;48.668;9.172;2022-07-06T13:09:33;6.10;;;3.30;;
18263;SDS011;9258;48.668;9.172;2022-07-06T13:12:35;6.22;;;3.33;;
18263;SDS011;9258;48.668;9.172;2022-07-06T13:15:41;4.88;;;2.90;;
18263;SDS011;9258;48.668;9.172;2022-07-06T13:18:47;5.70;;;2.90;;
18263;SDS011;9258;48.668;9.172;2022-07-06T13:21:51;4.72;;;2.63;;
18263;SDS011;9258;48.668;9.172;2022-07-06T13:24:53;3.50;;;2.88;;
18263;SDS011;9258;48.668;9.172;2022-07-06T13:27:54;4.13;;;2.83;;
18263;SDS011;9258;48.668;9.172;2022-07-06T13:30:56;3.55;;;2.75;;
18263;SDS011;9258;48.668;9.172;2022-07-06T13:33:59;4.35;;;2.30;;
18263;SDS011;9258;48.668;9.172;2022-07-06T13:37:00;4.57;;;2.42;;
18263;SDS011;9258;48.668;9.172;2022-07-06T13:40:02;4.43;;;2.10;;
18263;SDS011;9258;48.668;9.172;2022-07-06T13:43:04;4.35;;;2.30;;
18263;SDS011;9258;48.668;9.172;2022-07-06T13:46:06;9.82;;;2.08;;
18263;SDS011;9258;48.668;9.172;2022-07-06T13:49:12;5.03;;;2.33;;
18263;SDS011;9258;48.668;9.172;2022-07-06T13:52:13;5.30;;;2.15;;
18263;SDS011;9258;48.668;9.172;2022-07-06T13:55:15;3.88;;;2.10;;
18263;SDS011;9258;48.668;9.172;2022-07-06T13:58:17;4.00;;;2.03;;
18263;SDS011;9258;48.668;9.172;2022-07-06T14:01:18;5.38;;;2.30;;
18263;SDS011;9258;48.668;9.172;2022-07-06T14:04:22;4.97;;;2.85;;
18263;SDS011;9258;48.668;9.172;2022-07-06T14:07:24;3.33;;;2.47;;
18263;SDS011;9258;48.668;9.172;2022-07-06T14:10:26;3.35;;;2.53;;
18263;SDS011;9258;48.668;9.172;2022-07-06T14:13:28;3.45;;;2.47;;
18263;SDS011;9258;48.668;9.172;2022-07-06T14:16:32;3.30;;;2.70;;
18263;SDS011;9258;48.668;9.172;2022-07-06T14:19:36;4.63;;;2.42;;
18263;SDS011;9258;48.668;9.172;2022-07-06T14:22:38;2.75;;;2.50;;
18263;SDS011;9258;48.668;9.172;2022-07-06T14:25:40;2.92;;;1.63;;
18263;SDS011;9258;48.668;9.172;2022-07-06T14:28:43;3.28;;;2.00;;
18263;SDS011;9258;48.668;9.172;2022-07-06T14:31:45;4.72;;;2.00;;
18263;SDS011;9258;48.668;9.172;2022-07-06T14:34:49;2.65;;;1.90;;
18263;SDS011;9258;48.668;9.172;2022-07-06T14:37:50;2.03;;;1.45;;
18263;SDS011;9258;48.668;9.172;2022-07-06T14:40:52;2.92;;;2.00;;
18263;SDS011;9258;48.668;9.172;2022-07-06T14:43:54;2.83;;;1.70;;
18263;SDS011;9258;48.668;9.172;2022-07-06T14:46:56;2.88;;;1.73;;
18263;SDS011;9258;48.668;9.172;2022-07-06T14:49:59;3.80;;;2.08;;
18263;SDS011;9258;48.668;9.172;2022-07-06T14:53:00;3.08;;;1.60;;
18263;SDS011;9258;48.668;9.172;2022-07-06T14:56:02;3.47;;;1.65;;
18263;SDS011;9258;48.668;9.172;2022-07-06T14:59:04;3.42;;;1.75;;
18263;SDS011;9258;48.668;9.172;2022-07-06T15:02:08;4.70;;;1.70;;
18263;SDS011;9258;48.668;9.172;2022-07-06T15:05:13;3.50;;;1.83;;
18263;SDS011;9258;48.668;9.172;2022-07-06T15:08:15;1.70;;;1.42;;
18263;SDS011;9258;48.668;9.172;2022-07-06T15:11:18;3.83;;;1.70;;
18263;SDS011;9258;48.668;9.172;2022-07-06T15:14:19;4.60;;;1.98;;
18263;SDS011;9258;48.668;9.172;2022-07-06T15:17:20;3.03;;;1.65;;
18263;SDS011;9258;48.668;9.172;2022-07-06T15:20:24;3.83;;;1.83;;
18263;SDS011;9258;48.668;9.172;2022-07-06T15:23:25;4.47;;;1.90;;
18263;SDS011;9258;48.668;9.172;2022-07-06T15:26:27;1.88;;;1.50;;
18263;SDS011;9258;48.668;9.172;2022-07-06T15:29:29;2.80;;;1.63;;
18263;SDS011;9258;48.668;9.172;2022-07-06T15:32:30;2.22;;;1.40;;
18263;SDS011;9258;48.668;9.172;2022-07-06T15:35:34;1.35;;;1.25;;
18263;SDS011;9258;48.668;9.172;2022-07-06T15:38:35;3.35;;;1.35;;
18263;SDS011;9258;48.668;9.172;2022-07-06T15:41:37;2.33;;;1.40;;
18263;SDS011;9258;48.668;9.172;2022-07-06T15:44:40;2.88;;;1.45;;
18263;SDS011;9258;48.668;9.172;2022-07-06T15:47:41;2.60;;;1.35;;
18263;SDS011;9258;48.668;9.172;2022-07-06T15:50:44;3.15;;;1.90;;
18263;SDS011;9258;48.668;9.172;2022-07-06T15:53:46;2.75;;;1.70;;
18263;SDS011;9258;48.668;9.172;2022-07-06T15:56:48;4.70;;;1.23;;
18263;SDS011;9258;48.668;9.172;2022-07-06T15:59:50;3.75;;;1.65;;
18263;SDS011;9258;48.668;9.172;2022-07-06T16:02:52;2.53;;;1.95;;
18263;SDS011;9258;48.668;9.172;2022-07-06T16:05:58;3.97;;;1.67;;
18263;SDS011;9258;48.668;9.172;2022-07-06T16:09:04;1.48;;;1.38;;
18263;SDS011;9258;48.668;9.172;2022-07-06T16:12:06;2.60;;;1.50;;
18263;SDS011;9258;48.668;9.172;2022-07-06T16:15:10;2.05;;;1.27;;
18263;SDS011;9258;48.668;9.172;2022-07-06T16:18:11;3.30;;;1.40;;
18263;SDS011;9258;48.668;9.172;2022-07-06T16:21:45;2.92;;;1.52;;
18263;SDS011;9258;48.668;9.172;2022-07-06T16:25:48;4.18;;;1.30;;
18263;SDS011;9258;48.668;9.172;2022-07-06T16:37:11;1.90;;;1.20;;
18263;SDS011;9258;48.668;9.172;2022-07-06T16:40:16;3.25;;;1.38;;
18263;SDS011;9258;48.668;9.172;2022-07-06T16:43:18;7.43;;;1.50;;
18263;SDS011;9258;48.668;9.172;2022-07-06T16:46:20;2.08;;;1.20;;
18263;SDS011;9258;48.668;9.172;2022-07-06T16:49:22;1.90;;;1.30;;
18263;SDS011;9258;48.668;9.172;2022-07-06T16:52:25;2.55;;;1.10;;
18263;SDS011;9258;48.668;9.172;2022-07-06T16:55:28;1.80;;;1.10;;
18263;SDS011;9258;48.668;9.172;2022-07-06T16:58:29;2.05;;;1.20;;
18263;SDS011;9258;48.668;9.172;2022-07-06T17:01:32;2.40;;;0.93;;
18263;SDS011;9258;48.668;9.172;2022-07-06T17:04:34;6.47;;;1.15;;
18263;SDS011;9258;48.668;9.172;2022-07-06T17:07:37;3.30;;;1.30;;
18263;SDS011;9258;48.668;9.172;2022-07-06T17:10:38;1.35;;;0.90;;
18263;SDS011;9258;48.668;9.172;2022-07-06T17:13:40;4.53;;;1.25;;
18263;SDS011;9258;48.668;9.172;2022-07-06T17:16:41;8.85;;;1.23;;
18263;SDS011;9258;48.668;9.172;2022-07-06T17:19:43;1.25;;;1.15;;
18263;SDS011;9258;48.668;9.172;2022-07-06T17:22:46;1.45;;;1.10;;
18263;SDS011;9258;48.668;9.172;2022-07-06T17:25:47;1.98;;;1.27;;
18263;SDS011;9258;48.668;9.172;2022-07-06T17:28:49;2.63;;;1.10;;
18263;SDS011;9258;48.668;9.172;2022-07-06T17:31:51;2.33;;;1.27;;
18263;SDS011;9258;48.668;9.172;2022-07-06T17:34:53;2.10;;;1.27;;
18263;SDS011;9258;48.668;9.172;2022-07-06T17:37:56;2.35;;;1.20;;
18263;SDS011;9258;48.668;9.172;2022-07-06T17:40:57;3.75;;;1.10;;
18263;SDS011;9258;48.668;9.172;2022-07-06T17:43:59;1.60;;;1.13;;
18263;SDS011;9258;48.668;9.172;2022-07-06T17:47:00;3.25;;;1.27;;
18263;SDS011;9258;48.668;9.172;2022-07-06T17:50:02;3.45;;;1.25;;
18263;SDS011;9258;48.668;9.172;2022-07-06T17:53:05;2.25;;;1.10;;
18263;SDS011;9258;48.668;9.172;2022-07-06T17:56:07;2.97;;;1.13;;
18263;SDS011;9258;48.668;9.172;2022-07-06T17:59:10;1.80;;;1.10;;
18263;SDS011;9258;48.668;9.172;2022-07-06T18:02:11;1.50;;;1.33;;
18263;SDS011;9258;48.668;9.172;2022-07-06T18:05:13;3.08;;;1.30;;
18263;SDS011;9258;48.668;9.172;2022-07-06T18:08:17;2.47;;;1.75;;
18263;SDS011;9258;48.668;9.172;2022-07-06T18:11:19;3.03;;;1.42;;
18263;SDS011;9258;48.668;9.172;2022-07-06T18:14:20;2.42;;;1.50;;
18263;SDS011;9258;48.668;9.172;2022-07-06T18:17:22;1.60;;;1.50;;
18263;SDS011;9258;48.668;9.172;2022-07-06T18:20:24;2.67;;;1.38;;
18263;SDS011;9258;48.668;9.172;2022-07-06T18:23:27;1.50;;;1.40;;
18263;SDS011;9258;48.668;9.172;2022-07-06T18:26:29;4.50;;;1.90;;
18263;SDS011;9258;48.668;9.172;2022-07-06T18:29:31;5.68;;;2.05;;
18263;SDS011;9258;48.668;9.172;2022-07-06T18:32:32;2.05;;;1.73;;
18263;SDS011;9258;48.668;9.172;2022-07-06T18:35:34;2.10;;;1.88;;
18263;SDS011;9258;48.668;9.172;2022-07-06T18:38:37;2.20;;;1.98;;
18263;SDS011;9258;48.668;9.172;2022-07-06T18:41:39;3.42;;;2.13;;
18263;SDS011;9258;48.668;9.172;2022-07-06T18:44:40;2.10;;;1.77;;
18263;SDS011;9258;48.668;9.172;2022-07-06T18:47:42;3.40;;;2.17;;